Alexander City, Alabama
Current Conditions -  °F | °C
As of 5:55 AM on Monday 24 Nov 2014 (Local Time) from KALX Reporting Station
Overcast Overcast  
Wind Chill: 21°   Ceiling: 1000
Heat Index: 21°   Visibility: 10mi
Dew Point: 18°   Wind: 9mph
Humidity: 82%   Direction: 220°SW
Pressure: 29.78"   Gusts: NA
Location:  32.94°N, 85.95°W
Report Text: KALX 241155Z AUTO 22008KT 10SM BKN010 OVC014 21/18 A2978 RMK AO2 70068 T02070175 10207 20180
Loading
Personal Weather Stations






























Interactive Weather Map New forecast layout! Learn more

10-Day Weather Forecast

Advertisements
Track Severe Weather on mobile